Sunset Pines, Pennsylvania
Current Conditions -  °F | °C
As of 7:54 AM on Saturday 20 Dec 2014 (Local Time) from KIPT Reporting Station
Overcast Overcast  
Wind Chill: 26°   Ceiling: 2800
Heat Index: 31°   Visibility: 10mi
Dew Point: 20°   Wind: 5mph
Humidity: 64%   Direction: 290°WNW
Pressure: 30.26"   Gusts: NA
Location:  41.2558°N, 77.4987°W
Report Text: KIPT 201254Z 29004KT 10SM OVC028 M01/M07 A3026 RMK AO2 SLP251 T10061067
Loading
Personal Weather Stations






























Interactive Weather Map New forecast layout! Learn more

10-Day Weather Forecast

Advertisements
Track Severe Weather on mobile